createdAt,value
2023-07-24T00:03:29.599Z,3.90
2023-07-24T00:13:32.808Z,4.57
2023-07-24T00:23:36.458Z,4.68
2023-07-24T00:33:40.305Z,4.43
2023-07-24T00:53:46.349Z,4.18
2023-07-24T01:03:49.428Z,4.53
2023-07-24T01:14:06.405Z,4.03
2023-07-24T01:24:26.679Z,4.60
2023-07-24T01:34:29.616Z,4.05
2023-07-24T01:44:32.701Z,4.40
2023-07-24T01:54:35.573Z,3.70
2023-07-24T02:04:38.054Z,3.83
2023-07-24T02:14:40.403Z,4.03
2023-07-24T02:24:43.576Z,4.40
2023-07-24T02:34:46.637Z,4.60
2023-07-24T02:44:49.188Z,4.70
2023-07-24T02:54:51.730Z,4.65
2023-07-24T03:04:54.102Z,4.78
2023-07-24T03:14:56.545Z,5.05
2023-07-24T03:24:59.249Z,5.35
2023-07-24T03:35:01.633Z,4.70
2023-07-24T03:45:04.771Z,5.40
2023-07-24T03:55:09.593Z,5.60
2023-07-24T04:05:12.650Z,5.25
2023-07-24T04:15:15.410Z,5.67
2023-07-24T04:25:17.947Z,5.45
2023-07-24T04:35:21.029Z,4.87
2023-07-24T04:45:24.295Z,4.20
2023-07-24T04:55:27.396Z,3.65
2023-07-24T05:05:30.222Z,3.10
2023-07-24T05:15:33.418Z,3.07
2023-07-24T05:25:36.283Z,2.67
2023-07-24T05:35:39.512Z,2.67
2023-07-24T05:45:42.819Z,3.00
2023-07-24T05:55:46.354Z,2.87
2023-07-24T06:05:53.970Z,2.55
2023-07-24T06:15:56.564Z,2.85
2023-07-24T06:25:59.397Z,3.37
2023-07-24T06:36:02.662Z,2.73
2023-07-24T06:46:07.068Z,2.47
2023-07-24T06:56:11.180Z,2.65
2023-07-24T07:16:23.801Z,2.62
2023-07-24T07:26:27.003Z,3.40
2023-07-24T07:36:30.597Z,3.05
2023-07-24T07:46:34.392Z,3.12
2023-07-24T07:56:37.664Z,3.35
2023-07-24T08:06:40.529Z,3.12
2023-07-24T08:16:43.326Z,3.53
2023-07-24T08:26:46.900Z,4.10
2023-07-24T08:36:50.567Z,3.62
2023-07-24T08:46:54.311Z,3.78
2023-07-24T08:56:57.952Z,3.30
2023-07-24T09:07:01.049Z,3.20
2023-07-24T09:17:09.248Z,1.95
2023-07-24T09:27:13.982Z,1.60
2023-07-24T09:37:33.079Z,1.40
2023-07-24T09:47:55.076Z,1.50
2023-07-24T09:58:02.294Z,1.37
2023-07-24T10:08:06.957Z,1.60
2023-07-24T10:18:11.941Z,1.00
2023-07-24T10:28:17.982Z,1.20
2023-07-24T10:38:36.232Z,1.50
2023-07-24T10:48:45.801Z,1.98
2023-07-24T10:58:48.727Z,2.12
2023-07-24T11:09:02.436Z,1.97
2023-07-24T11:19:09.811Z,2.15
2023-07-24T11:29:15.564Z,2.75
2023-07-24T11:39:25.703Z,2.40
2023-07-24T11:49:32.611Z,2.03
2023-07-24T11:59:41.010Z,2.42
2023-07-24T12:09:54.089Z,2.30
2023-07-24T12:19:57.430Z,2.72
2023-07-24T12:40:05.473Z,2.20
2023-07-24T12:50:09.094Z,2.17
2023-07-24T13:00:13.114Z,2.70
2023-07-24T13:10:16.312Z,2.40
2023-07-24T13:20:19.798Z,2.80
2023-07-24T13:30:22.966Z,2.60
2023-07-24T13:40:27.416Z,2.33
2023-07-24T13:50:30.686Z,3.30
2023-07-24T14:00:34.055Z,2.78
2023-07-24T14:20:41.925Z,2.97
2023-07-24T14:30:44.786Z,3.30
2023-07-24T14:40:48.663Z,3.22
2023-07-24T14:50:51.678Z,2.90
2023-07-24T15:00:58.362Z,3.05
2023-07-24T15:11:02.034Z,2.37
2023-07-24T15:21:06.703Z,1.80
2023-07-24T15:31:12.616Z,1.73
2023-07-24T15:41:16.550Z,1.92
2023-07-24T15:51:19.791Z,1.70
2023-07-24T16:01:25.789Z,1.60
2023-07-24T16:11:30.414Z,1.62
2023-07-24T16:21:34.294Z,1.70
2023-07-24T16:31:38.052Z,4.50
2023-07-24T16:41:41.482Z,2.15
2023-07-24T16:51:44.812Z,1.87
2023-07-24T17:01:47.750Z,2.00
2023-07-24T17:11:52.837Z,1.98
2023-07-24T17:21:56.825Z,2.15
2023-07-24T17:32:01.969Z,2.10
2023-07-24T17:42:05.491Z,2.30
2023-07-24T17:52:10.433Z,2.37
2023-07-24T18:02:13.353Z,2.00
2023-07-24T18:12:16.428Z,2.25
2023-07-24T18:22:20.828Z,2.10
2023-07-24T18:32:25.888Z,2.05
2023-07-24T18:42:29.752Z,2.22
2023-07-24T18:52:32.822Z,2.00
2023-07-24T19:02:35.638Z,2.08
2023-07-24T19:12:40.683Z,2.10
2023-07-24T19:22:43.844Z,1.98
2023-07-24T19:32:46.700Z,1.70
2023-07-24T19:42:49.719Z,2.00
2023-07-24T19:52:52.785Z,1.90
2023-07-24T20:02:57.133Z,1.80
2023-07-24T20:12:59.945Z,2.05
2023-07-24T20:23:03.561Z,2.23
2023-07-24T20:43:10.512Z,1.73
2023-07-24T20:53:13.471Z,1.83
2023-07-24T21:03:16.159Z,2.40
2023-07-24T21:13:19.500Z,2.20
2023-07-24T21:23:22.404Z,1.85
2023-07-24T21:33:25.068Z,2.20
2023-07-24T21:43:27.915Z,1.80
2023-07-24T21:53:30.798Z,2.00
2023-07-24T22:03:33.817Z,2.63
2023-07-24T22:13:36.633Z,1.80
2023-07-24T22:23:38.968Z,1.98
2023-07-24T22:33:41.314Z,1.98
2023-07-24T22:43:43.661Z,1.80
2023-07-24T22:53:46.095Z,1.40
2023-07-24T23:03:49.834Z,1.90
2023-07-24T23:13:52.506Z,1.90
2023-07-24T23:23:54.963Z,1.85
2023-07-24T23:33:57.473Z,2.08
2023-07-24T23:43:59.811Z,2.15
2023-07-24T23:54:02.213Z,1.80
